createdAt,value
2019-05-20T00:00:09.232Z,3.25
2019-05-20T00:02:43.027Z,3.22
2019-05-20T00:05:11.631Z,2.58
2019-05-20T00:07:40.132Z,2.77
2019-05-20T00:10:09.028Z,2.10
2019-05-20T00:12:37.456Z,1.92
2019-05-20T00:15:06.862Z,1.80
2019-05-20T00:17:35.304Z,1.62
2019-05-20T00:20:08.122Z,1.47
2019-05-20T00:22:36.571Z,1.50
2019-05-20T00:25:07.728Z,1.45
2019-05-20T00:27:36.252Z,1.65
2019-05-20T00:30:06.314Z,1.60
2019-05-20T00:32:41.231Z,1.70
2019-05-20T00:35:07.169Z,1.35
2019-05-20T00:37:35.653Z,1.70
2019-05-20T00:40:08.405Z,1.70
2019-05-20T00:42:36.862Z,1.12
2019-05-20T00:45:06.026Z,0.88
2019-05-20T00:47:34.565Z,1.55
2019-05-20T00:50:03.508Z,0.80
2019-05-20T00:52:32.039Z,1.02
2019-05-20T00:55:00.613Z,1.20
2019-05-20T00:57:29.078Z,0.93
2019-05-20T00:59:57.560Z,1.00
2019-05-20T01:02:26.015Z,2.35
2019-05-20T01:04:54.466Z,1.57
2019-05-20T01:07:22.890Z,1.20
2019-05-20T01:09:51.386Z,1.20
2019-05-20T01:12:19.879Z,1.30
2019-05-20T01:14:48.319Z,1.30
2019-05-20T01:17:16.744Z,1.67
2019-05-20T01:19:45.208Z,1.45
2019-05-20T01:22:13.631Z,1.40
2019-05-20T01:24:42.072Z,1.57
2019-05-20T01:27:10.577Z,1.65
2019-05-20T01:29:39.030Z,2.27
2019-05-20T01:32:07.454Z,1.70
2019-05-20T01:34:35.903Z,1.70
2019-05-20T01:37:04.439Z,1.90
2019-05-20T01:39:32.961Z,1.77
2019-05-20T01:42:01.669Z,2.65
2019-05-20T01:44:30.187Z,1.20
2019-05-20T01:46:58.705Z,0.98
2019-05-20T01:49:27.149Z,1.42
2019-05-20T01:51:55.558Z,0.90
2019-05-20T01:54:23.984Z,1.07
2019-05-20T01:56:52.580Z,1.32
2019-05-20T01:59:20.997Z,1.67
2019-05-20T02:01:49.446Z,1.20
2019-05-20T02:04:17.864Z,1.40
2019-05-20T02:06:46.354Z,1.10
2019-05-20T02:09:14.938Z,1.12
2019-05-20T02:11:43.409Z,1.40
2019-05-20T02:14:13.462Z,1.00
2019-05-20T02:16:41.925Z,1.32
2019-05-20T02:19:10.365Z,1.37
2019-05-20T02:21:38.794Z,1.50
2019-05-20T02:24:07.228Z,1.37
2019-05-20T02:26:35.648Z,1.60
2019-05-20T02:29:04.284Z,1.40
2019-05-20T02:31:32.802Z,2.30
2019-05-20T02:34:01.305Z,1.55
2019-05-20T02:36:29.764Z,1.00
2019-05-20T02:38:58.293Z,2.05
2019-05-20T02:41:27.423Z,1.27
2019-05-20T02:43:55.836Z,1.37
2019-05-20T02:46:24.383Z,1.70
2019-05-20T02:48:52.853Z,1.50
2019-05-20T02:51:22.923Z,1.15
2019-05-20T02:53:51.367Z,1.30
2019-05-20T02:56:19.802Z,1.67
2019-05-20T02:58:48.272Z,2.10
2019-05-20T03:01:16.701Z,2.37
2019-05-20T03:03:45.199Z,2.00
2019-05-20T03:06:13.654Z,2.02
2019-05-20T03:08:42.067Z,1.65
2019-05-20T03:11:10.514Z,1.50
2019-05-20T03:13:38.927Z,5.53
2019-05-20T03:16:07.763Z,46.30
2019-05-20T03:18:36.270Z,28.38
2019-05-20T03:21:04.789Z,7.55
2019-05-20T03:23:33.321Z,19.57
2019-05-20T03:26:01.774Z,10.25
2019-05-20T03:28:30.253Z,5.65
2019-05-20T03:30:58.704Z,5.22
2019-05-20T03:33:27.184Z,4.03
2019-05-20T03:35:55.627Z,3.45
2019-05-20T03:38:24.051Z,2.52
2019-05-20T03:40:52.480Z,2.47
2019-05-20T03:43:20.986Z,1.90
2019-05-20T03:45:49.503Z,2.92
2019-05-20T03:48:17.933Z,2.40
2019-05-20T03:50:46.456Z,2.50
2019-05-20T03:53:14.859Z,2.65
2019-05-20T03:55:44.357Z,2.20
2019-05-20T03:58:13.941Z,3.08
2019-05-20T04:00:47.117Z,3.35
2019-05-20T04:03:16.431Z,3.15
2019-05-20T04:05:45.584Z,1.90
2019-05-20T04:08:14.562Z,2.55
2019-05-20T04:10:43.219Z,1.95
2019-05-20T04:13:11.716Z,2.33
2019-05-20T04:15:40.368Z,2.50
2019-05-20T04:18:08.968Z,1.57
2019-05-20T04:20:37.472Z,1.52
2019-05-20T04:23:05.969Z,1.80
2019-05-20T04:25:34.609Z,1.70
2019-05-20T04:28:03.201Z,1.85
2019-05-20T04:30:31.689Z,2.15
2019-05-20T04:33:00.223Z,2.08
2019-05-20T04:35:28.822Z,1.95
2019-05-20T04:37:57.259Z,1.60
2019-05-20T04:40:25.771Z,2.30
2019-05-20T04:42:54.294Z,1.40
2019-05-20T04:45:22.758Z,1.60
2019-05-20T04:47:51.173Z,3.05
2019-05-20T04:50:19.774Z,2.08
2019-05-20T04:52:48.210Z,1.95
2019-05-20T04:55:16.796Z,1.80
2019-05-20T04:57:45.226Z,1.80
2019-05-20T05:00:15.098Z,1.87
2019-05-20T05:02:43.977Z,2.30
2019-05-20T05:05:12.673Z,2.55
2019-05-20T05:07:41.160Z,2.60
2019-05-20T05:10:10.386Z,2.65
2019-05-20T05:12:38.832Z,3.05
2019-05-20T05:15:12.307Z,3.67
2019-05-20T05:17:40.873Z,3.83
2019-05-20T05:20:17.516Z,4.95
2019-05-20T05:22:39.799Z,3.70
2019-05-20T05:25:08.359Z,5.42
2019-05-20T05:27:36.861Z,6.17
2019-05-20T05:30:07.230Z,5.75
2019-05-20T05:32:41.908Z,5.80
2019-05-20T05:35:15.401Z,6.65
2019-05-20T05:37:44.145Z,6.90
2019-05-20T05:40:13.313Z,7.42
2019-05-20T05:42:41.773Z,8.20
2019-05-20T05:45:11.750Z,8.20
2019-05-20T05:47:40.238Z,6.95
2019-05-20T05:50:09.446Z,10.45
2019-05-20T05:52:37.888Z,7.30
2019-05-20T05:55:06.575Z,11.10
2019-05-20T05:57:35.002Z,9.80
2019-05-20T06:00:05.496Z,9.43
2019-05-20T06:02:33.938Z,9.13
2019-05-20T06:05:02.352Z,9.23
2019-05-20T06:07:30.809Z,8.33
2019-05-20T06:09:59.333Z,9.80
2019-05-20T06:12:28.342Z,8.35
2019-05-20T06:14:56.796Z,9.25
2019-05-20T06:17:25.255Z,11.43
2019-05-20T06:19:53.679Z,10.03
2019-05-20T06:22:22.191Z,11.05
2019-05-20T06:24:51.043Z,9.20
2019-05-20T06:27:20.102Z,11.18
2019-05-20T06:29:48.607Z,9.65
2019-05-20T06:32:17.161Z,8.25
2019-05-20T06:34:45.705Z,9.25
2019-05-20T06:37:15.988Z,9.08
2019-05-20T06:39:44.534Z,9.75
2019-05-20T06:42:13.026Z,8.65
2019-05-20T06:44:52.405Z,11.45
2019-05-20T06:47:11.775Z,9.18
2019-05-20T06:49:40.528Z,10.63
2019-05-20T06:52:09.054Z,10.30
2019-05-20T06:54:37.555Z,7.53
2019-05-20T06:57:05.998Z,7.33
2019-05-20T06:59:34.708Z,8.20
2019-05-20T07:02:03.401Z,8.00
2019-05-20T07:04:31.932Z,7.05
2019-05-20T07:07:00.427Z,6.90
2019-05-20T07:09:28.869Z,7.92
2019-05-20T07:11:57.338Z,7.70
2019-05-20T07:14:25.800Z,6.08
2019-05-20T07:16:54.267Z,5.20
2019-05-20T07:19:22.703Z,6.37
2019-05-20T07:21:51.143Z,6.45
2019-05-20T07:24:19.687Z,6.83
2019-05-20T07:26:48.114Z,5.85
2019-05-20T07:29:16.611Z,6.42
2019-05-20T07:31:45.067Z,6.37
2019-05-20T07:34:13.485Z,6.92
2019-05-20T07:36:41.964Z,6.90
2019-05-20T07:39:10.380Z,6.22
2019-05-20T07:41:41.395Z,6.58
2019-05-20T07:44:09.011Z,6.42
2019-05-20T07:46:37.614Z,6.85
2019-05-20T07:49:06.531Z,11.20
2019-05-20T07:51:35.871Z,8.40
2019-05-20T07:54:04.472Z,8.13
2019-05-20T07:56:35.941Z,10.70
2019-05-20T07:59:07.395Z,9.38
2019-05-20T08:01:36.063Z,11.22
2019-05-20T08:04:04.672Z,11.28
2019-05-20T08:06:33.162Z,13.50
2019-05-20T08:09:01.679Z,13.85
2019-05-20T08:11:30.219Z,13.20
2019-05-20T08:13:58.747Z,17.40
2019-05-20T08:16:27.267Z,18.57
2019-05-20T08:18:55.725Z,19.23
2019-05-20T08:21:24.727Z,17.85
2019-05-20T08:23:53.208Z,20.37
2019-05-20T08:26:21.828Z,22.62
2019-05-20T08:28:50.403Z,23.55
2019-05-20T08:31:19.005Z,27.95
2019-05-20T08:33:47.559Z,26.93
2019-05-20T08:36:15.989Z,29.70
2019-05-20T08:38:44.484Z,24.23
2019-05-20T08:41:13.018Z,24.18
2019-05-20T08:43:41.457Z,26.95
2019-05-20T08:46:09.988Z,22.42
2019-05-20T08:48:38.536Z,25.60
2019-05-20T08:51:07.071Z,22.73
2019-05-20T08:53:35.505Z,25.20
2019-05-20T08:56:04.045Z,25.70
2019-05-20T08:58:32.531Z,31.37
2019-05-20T09:01:01.063Z,24.63
2019-05-20T09:03:30.440Z,25.23
2019-05-20T09:05:59.308Z,28.77
2019-05-20T09:08:27.820Z,28.90
2019-05-20T09:10:56.248Z,28.67
2019-05-20T09:13:24.793Z,28.47
2019-05-20T09:15:53.303Z,33.25
2019-05-20T09:18:21.807Z,33.15
2019-05-20T09:20:50.283Z,33.20
2019-05-20T09:23:19.022Z,32.15
2019-05-20T09:25:47.475Z,28.42
2019-05-20T09:28:15.914Z,28.02
2019-05-20T09:30:44.609Z,27.42
2019-05-20T09:33:13.201Z,31.35
2019-05-20T09:35:42.086Z,30.90
2019-05-20T09:38:19.988Z,29.70
2019-05-20T09:40:47.295Z,26.73
2019-05-20T09:43:16.111Z,29.05
2019-05-20T09:45:44.727Z,31.33
2019-05-20T09:48:13.730Z,31.68
2019-05-20T09:50:42.234Z,28.42
2019-05-20T09:53:10.758Z,30.55
2019-05-20T09:55:39.326Z,32.93
2019-05-20T09:58:08.609Z,27.58
2019-05-20T10:00:37.368Z,27.10
2019-05-20T10:03:07.001Z,34.40
2019-05-20T10:05:37.396Z,35.30
2019-05-20T10:08:06.633Z,33.58
2019-05-20T10:10:35.280Z,33.90
2019-05-20T10:13:03.894Z,34.58
2019-05-20T10:15:32.550Z,32.63
2019-05-20T10:18:01.041Z,34.92
2019-05-20T10:20:29.514Z,35.03
2019-05-20T10:22:57.960Z,35.95
2019-05-20T10:25:26.579Z,30.23
2019-05-20T10:27:57.463Z,31.33
2019-05-20T10:30:25.469Z,32.10
2019-05-20T10:32:53.929Z,30.88
2019-05-20T10:35:22.494Z,35.23
2019-05-20T10:37:51.013Z,31.37
2019-05-20T10:40:19.789Z,33.67
2019-05-20T10:42:48.240Z,36.83
2019-05-20T10:45:16.847Z,31.37
2019-05-20T10:47:45.405Z,33.13
2019-05-20T10:50:14.271Z,33.63
2019-05-20T10:52:42.749Z,35.95
2019-05-20T10:55:11.682Z,34.92
2019-05-20T10:57:40.225Z,34.67
2019-05-20T11:00:09.208Z,35.48
2019-05-20T11:02:37.686Z,40.38
2019-05-20T11:05:06.752Z,35.68
2019-05-20T11:07:35.250Z,38.05
2019-05-20T11:10:07.711Z,34.75
2019-05-20T11:12:36.245Z,35.40
2019-05-20T11:15:08.990Z,36.70
2019-05-20T11:17:37.558Z,36.30
2019-05-20T11:20:07.948Z,36.25
2019-05-20T11:22:36.417Z,37.03
2019-05-20T11:25:06.812Z,38.65
2019-05-20T11:27:35.231Z,40.58
2019-05-20T11:30:05.769Z,37.70
2019-05-20T11:32:34.356Z,39.67
2019-05-20T11:35:03.379Z,36.68
2019-05-20T11:37:31.887Z,37.55
2019-05-20T11:40:00.337Z,40.38
2019-05-20T11:42:28.827Z,38.58
2019-05-20T11:44:57.289Z,42.70
2019-05-20T11:47:25.762Z,39.38
2019-05-20T11:49:54.190Z,41.20
2019-05-20T11:52:22.792Z,37.28
2019-05-20T11:54:51.342Z,40.35
2019-05-20T11:57:19.779Z,37.33
2019-05-20T11:59:48.237Z,40.12
2019-05-20T12:02:16.691Z,44.80
2019-05-20T12:04:45.171Z,46.85
2019-05-20T12:07:13.597Z,43.30
2019-05-20T12:09:49.500Z,41.63
2019-05-20T12:12:12.249Z,40.92
2019-05-20T12:14:40.822Z,42.25
2019-05-20T12:17:09.282Z,41.15
2019-05-20T12:19:37.754Z,41.58
2019-05-20T12:22:06.193Z,38.00
2019-05-20T12:24:34.727Z,47.17
2019-05-20T12:27:03.175Z,40.33
2019-05-20T12:29:31.622Z,35.40
2019-05-20T12:32:03.431Z,37.67
2019-05-20T12:34:30.327Z,40.88
2019-05-20T12:36:58.759Z,37.53
2019-05-20T12:39:27.304Z,42.88
2019-05-20T12:41:55.877Z,38.67
2019-05-20T12:44:24.329Z,39.03
2019-05-20T12:46:52.830Z,41.08
2019-05-20T12:49:21.652Z,38.33
2019-05-20T12:51:50.139Z,39.15
2019-05-20T12:54:18.658Z,35.20
2019-05-20T12:56:47.177Z,35.73
2019-05-20T12:59:15.690Z,38.65
2019-05-20T13:01:44.318Z,37.35
2019-05-20T13:04:12.768Z,38.23
2019-05-20T13:06:41.216Z,41.10
2019-05-20T13:09:10.116Z,40.23
2019-05-20T13:11:38.576Z,39.27
2019-05-20T13:14:07.053Z,40.45
2019-05-20T13:16:35.498Z,36.42
2019-05-20T13:19:04.019Z,41.00
2019-05-20T13:21:32.497Z,40.20
2019-05-20T13:24:00.919Z,40.17
2019-05-20T13:26:29.491Z,41.40
2019-05-20T13:28:59.685Z,37.60
2019-05-20T13:31:28.154Z,39.58
2019-05-20T13:33:56.602Z,40.23
2019-05-20T13:36:25.110Z,41.58
2019-05-20T13:38:53.578Z,44.27
2019-05-20T13:41:22.010Z,36.20
2019-05-20T13:43:50.597Z,41.35
2019-05-20T13:46:19.057Z,41.37
2019-05-20T13:48:47.627Z,41.85
2019-05-20T13:51:16.190Z,41.00
2019-05-20T13:53:44.669Z,42.75
2019-05-20T13:56:13.247Z,44.60
2019-05-20T13:58:41.820Z,42.65
2019-05-20T14:01:10.343Z,39.35
2019-05-20T14:03:38.867Z,42.90
2019-05-20T14:06:07.506Z,37.50
2019-05-20T14:08:35.975Z,39.60
2019-05-20T14:11:05.105Z,41.30
2019-05-20T14:13:33.741Z,43.90
2019-05-20T14:16:02.176Z,40.63
2019-05-20T14:18:30.701Z,41.90
2019-05-20T14:20:59.133Z,45.48
2019-05-20T14:23:27.658Z,43.70
2019-05-20T14:25:56.099Z,46.30
2019-05-20T14:28:24.594Z,45.23
2019-05-20T14:30:53.049Z,43.15
2019-05-20T14:33:21.562Z,39.23
2019-05-20T14:35:50.033Z,42.83
2019-05-20T14:38:18.544Z,44.08
2019-05-20T14:40:47.063Z,44.80
2019-05-20T14:43:15.480Z,40.85
2019-05-20T14:45:45.250Z,41.98
2019-05-20T14:48:13.830Z,46.70
2019-05-20T14:50:42.256Z,41.63
2019-05-20T14:53:10.850Z,43.50
2019-05-20T14:55:42.671Z,49.00
2019-05-20T14:58:10.062Z,45.03
2019-05-20T15:00:38.593Z,51.08
2019-05-20T15:03:07.097Z,41.77
2019-05-20T15:05:35.773Z,44.90
2019-05-20T15:08:04.445Z,47.38
2019-05-20T15:10:33.341Z,47.60
2019-05-20T15:13:01.828Z,44.00
2019-05-20T15:15:30.921Z,40.67
2019-05-20T15:17:59.530Z,49.98
2019-05-20T15:20:27.983Z,46.08
2019-05-20T15:22:56.394Z,43.95
2019-05-20T15:25:24.984Z,38.60
2019-05-20T15:27:53.920Z,40.92
2019-05-20T15:30:22.525Z,38.53
2019-05-20T15:32:54.497Z,32.80
2019-05-20T15:35:21.215Z,30.88
2019-05-20T15:37:49.766Z,34.43
2019-05-20T15:40:18.331Z,30.25
2019-05-20T15:42:46.867Z,33.58
2019-05-20T15:45:15.689Z,29.92
2019-05-20T15:47:44.159Z,28.55
2019-05-20T15:50:13.404Z,31.07
2019-05-20T15:52:42.358Z,31.37
2019-05-20T15:55:11.487Z,27.10
2019-05-20T15:57:39.957Z,31.37
2019-05-20T16:00:10.469Z,29.82
2019-05-20T16:02:39.099Z,27.67
2019-05-20T16:05:08.416Z,31.23
2019-05-20T16:07:36.875Z,27.65
2019-05-20T16:10:06.853Z,31.57
2019-05-20T16:12:35.625Z,29.52
2019-05-20T16:15:06.599Z,28.30
2019-05-20T16:17:35.135Z,26.30
2019-05-20T16:20:07.112Z,27.65
2019-05-20T16:22:35.425Z,27.62
2019-05-20T16:25:05.193Z,24.80
2019-05-20T16:27:33.759Z,28.30
2019-05-20T16:30:06.742Z,27.62
2019-05-20T16:32:32.449Z,25.00
2019-05-20T16:35:01.454Z,23.02
2019-05-20T16:37:29.903Z,22.07
2019-05-20T16:39:58.385Z,20.88
2019-05-20T16:42:26.874Z,20.70
2019-05-20T16:44:55.455Z,20.68
2019-05-20T16:47:24.071Z,20.80
2019-05-20T16:49:52.611Z,22.75
2019-05-20T16:52:21.186Z,22.37
2019-05-20T16:54:49.719Z,18.65
2019-05-20T16:57:18.168Z,23.65
2019-05-20T16:59:46.699Z,25.15
2019-05-20T17:02:15.254Z,25.65
2019-05-20T17:04:43.858Z,24.43
2019-05-20T17:07:12.338Z,26.48
2019-05-20T17:09:40.854Z,24.63
2019-05-20T17:12:09.297Z,26.52
2019-05-20T17:14:37.743Z,23.40
2019-05-20T17:17:06.342Z,31.30
2019-05-20T17:19:34.821Z,28.70
2019-05-20T17:22:03.376Z,33.00
2019-05-20T17:24:31.811Z,30.65
2019-05-20T17:27:00.307Z,29.30
2019-05-20T17:29:28.805Z,36.88
2019-05-20T17:31:57.266Z,33.13
2019-05-20T17:34:25.696Z,33.05
2019-05-20T17:36:54.280Z,36.60
2019-05-20T17:39:22.917Z,31.12
2019-05-20T17:41:51.469Z,36.45
2019-05-20T17:44:20.022Z,31.25
2019-05-20T17:46:48.561Z,29.05
2019-05-20T17:49:17.271Z,29.23
2019-05-20T17:51:45.775Z,25.60
2019-05-20T17:54:14.667Z,31.05
2019-05-20T17:56:43.366Z,28.55
2019-05-20T17:59:11.790Z,27.95
2019-05-20T18:01:40.296Z,23.55
2019-05-20T18:04:08.881Z,21.80
2019-05-20T18:06:37.410Z,19.92
2019-05-20T18:09:07.687Z,19.57
2019-05-20T18:11:36.309Z,18.17
2019-05-20T18:14:05.471Z,15.95
2019-05-20T18:16:34.378Z,14.55
2019-05-20T18:19:02.892Z,12.85
2019-05-20T18:21:31.353Z,14.73
2019-05-20T18:23:59.933Z,14.00
2019-05-20T18:26:28.362Z,13.60
2019-05-20T18:28:56.828Z,16.55
2019-05-20T18:31:32.483Z,15.75
2019-05-20T18:33:55.538Z,15.45
2019-05-20T18:36:24.075Z,9.40
2019-05-20T18:38:52.508Z,10.35
2019-05-20T18:41:21.003Z,7.53
2019-05-20T18:43:49.461Z,8.28
2019-05-20T18:46:17.983Z,9.03
2019-05-20T18:48:46.436Z,8.40
2019-05-20T18:51:14.921Z,7.80
2019-05-20T18:53:43.382Z,6.28
2019-05-20T18:56:11.964Z,6.95
2019-05-20T18:58:40.429Z,7.47
2019-05-20T19:01:08.938Z,7.00
2019-05-20T19:03:37.455Z,7.10
2019-05-20T19:06:05.967Z,6.50
2019-05-20T19:08:34.469Z,5.30
2019-05-20T19:11:03.072Z,6.20
2019-05-20T19:13:31.568Z,7.47
2019-05-20T19:16:00.153Z,6.15
2019-05-20T19:18:30.706Z,6.87
2019-05-20T19:20:59.226Z,5.40
2019-05-20T19:23:27.673Z,5.40
2019-05-20T19:25:56.193Z,5.47
2019-05-20T19:28:24.691Z,6.28
2019-05-20T19:30:53.231Z,8.55
2019-05-20T19:33:21.760Z,8.00
2019-05-20T19:35:50.318Z,6.65
2019-05-20T19:38:19.011Z,5.80
2019-05-20T19:40:47.475Z,6.95
2019-05-20T19:43:15.986Z,6.15
2019-05-20T19:45:44.557Z,7.25
2019-05-20T19:48:13.158Z,7.53
2019-05-20T19:50:41.685Z,7.80
2019-05-20T19:53:10.207Z,7.08
2019-05-20T19:55:38.690Z,6.72
2019-05-20T19:58:07.298Z,9.03
2019-05-20T20:00:35.758Z,8.50
2019-05-20T20:03:04.279Z,9.10
2019-05-20T20:05:32.765Z,10.25
2019-05-20T20:08:01.310Z,11.22
2019-05-20T20:10:29.793Z,10.80
2019-05-20T20:12:58.231Z,13.70
2019-05-20T20:15:26.811Z,12.00
2019-05-20T20:17:55.237Z,12.33
2019-05-20T20:20:23.709Z,13.55
2019-05-20T20:22:52.150Z,14.30
2019-05-20T20:25:20.623Z,14.25
2019-05-20T20:27:49.199Z,13.35
2019-05-20T20:30:17.787Z,15.93
2019-05-20T20:32:46.266Z,11.55
2019-05-20T20:35:14.893Z,13.00
2019-05-20T20:37:43.458Z,11.70
2019-05-20T20:40:12.233Z,11.50
2019-05-20T20:42:40.815Z,11.57
2019-05-20T20:45:09.558Z,12.40
2019-05-20T20:47:41.651Z,10.70
2019-05-20T20:50:08.591Z,10.08
2019-05-20T20:52:37.066Z,9.78
2019-05-20T20:55:06.836Z,10.18
2019-05-20T20:57:35.545Z,9.70
2019-05-20T21:00:06.613Z,9.65
2019-05-20T21:02:35.052Z,9.48
2019-05-20T21:05:04.255Z,9.15
2019-05-20T21:07:33.057Z,9.68
2019-05-20T21:10:01.529Z,9.43
2019-05-20T21:12:30.022Z,10.18
2019-05-20T21:14:58.521Z,9.98
2019-05-20T21:17:27.029Z,10.20
2019-05-20T21:19:55.521Z,11.35
2019-05-20T21:22:23.998Z,10.10
2019-05-20T21:24:52.465Z,8.40
2019-05-20T21:27:20.970Z,7.47
2019-05-20T21:29:49.425Z,8.78
2019-05-20T21:32:17.863Z,8.60
2019-05-20T21:34:46.349Z,7.33
2019-05-20T21:37:14.842Z,5.60
2019-05-20T21:39:43.276Z,6.72
2019-05-20T21:42:11.721Z,6.60
2019-05-20T21:44:40.168Z,6.28
2019-05-20T21:47:11.414Z,4.70
2019-05-20T21:49:39.904Z,5.53
2019-05-20T21:52:08.356Z,6.25
2019-05-20T21:54:36.823Z,5.80
2019-05-20T21:57:05.351Z,3.95
2019-05-20T21:59:33.878Z,3.70
2019-05-20T22:02:02.379Z,4.45
2019-05-20T22:04:30.920Z,4.00
2019-05-20T22:06:59.459Z,3.70
2019-05-20T22:09:27.964Z,4.65
2019-05-20T22:11:56.398Z,4.37
2019-05-20T22:14:24.990Z,5.85
2019-05-20T22:16:53.527Z,5.92
2019-05-20T22:19:22.090Z,10.78
2019-05-20T22:22:08.546Z,11.28
2019-05-20T22:24:36.999Z,12.15
2019-05-20T22:27:05.442Z,13.20
2019-05-20T22:29:33.982Z,20.85
2019-05-20T22:32:02.454Z,20.90
2019-05-20T22:34:31.109Z,24.20
2019-05-20T22:36:59.538Z,34.80
2019-05-20T22:39:28.003Z,26.05
2019-05-20T22:41:56.440Z,32.05
2019-05-20T22:44:24.872Z,34.85
2019-05-20T22:46:53.339Z,31.10
2019-05-20T22:49:21.778Z,36.23
2019-05-20T22:51:50.255Z,39.85
2019-05-20T22:54:18.762Z,37.85
2019-05-20T22:56:47.294Z,33.98
2019-05-20T22:59:15.799Z,44.35
2019-05-20T23:01:44.230Z,36.75
2019-05-20T23:04:12.719Z,40.30
2019-05-20T23:06:41.242Z,42.45
2019-05-20T23:09:10.980Z,42.90
2019-05-20T23:11:39.596Z,42.08
2019-05-20T23:14:08.042Z,41.88
2019-05-20T23:16:36.549Z,36.33
2019-05-20T23:19:05.092Z,45.40
2019-05-20T23:21:33.605Z,35.48
2019-05-20T23:24:02.132Z,47.70
2019-05-20T23:26:30.689Z,40.83
2019-05-20T23:28:59.194Z,40.03
2019-05-20T23:31:27.622Z,41.95
2019-05-20T23:34:10.356Z,48.10
2019-05-20T23:36:26.230Z,49.90
2019-05-20T23:38:55.080Z,50.78
2019-05-20T23:41:23.530Z,42.30
2019-05-20T23:43:51.973Z,59.48
2019-05-20T23:46:20.452Z,50.35
2019-05-20T23:48:48.953Z,49.42
2019-05-20T23:51:17.418Z,46.20
2019-05-20T23:53:47.457Z,58.25
2019-05-20T23:56:16.030Z,49.88
2019-05-20T23:58:44.468Z,52.35
